createdAt,value
2017-07-24T00:01:01.792Z,1007.48
2017-07-24T00:02:12.003Z,1007.48
2017-07-24T00:03:21.978Z,1007.49
2017-07-24T00:04:32.260Z,1007.48
2017-07-24T00:05:42.514Z,1007.45
2017-07-24T00:06:52.478Z,1007.48
2017-07-24T00:08:02.702Z,1007.43
2017-07-24T00:09:12.995Z,1007.43
2017-07-24T00:10:23.282Z,1007.4
2017-07-24T00:11:33.563Z,1007.38
2017-07-24T00:12:43.845Z,1007.42
2017-07-24T00:13:54.375Z,1007.36
2017-07-24T00:15:04.642Z,1007.36
2017-07-24T00:16:14.918Z,1007.32
2017-07-24T00:17:25.201Z,1007.32
2017-07-24T00:18:35.466Z,1007.3
2017-07-24T00:19:46.000Z,1007.32
2017-07-24T00:20:56.278Z,1007.29
2017-07-24T00:22:06.557Z,1007.31
2017-07-24T00:23:16.851Z,1007.27
2017-07-24T00:24:27.121Z,1007.27
2017-07-24T00:25:37.658Z,1007.26
2017-07-24T00:26:48.185Z,1007.26
2017-07-24T00:27:58.164Z,1007.27
2017-07-24T00:29:08.142Z,1007.23
2017-07-24T00:30:18.422Z,1007.23
2017-07-24T00:31:28.644Z,1007.21
2017-07-24T00:32:38.919Z,1007.21
2017-07-24T00:33:49.224Z,1007.18
2017-07-24T00:34:59.562Z,1007.16
2017-07-24T00:36:09.549Z,1007.16
2017-07-24T00:37:20.073Z,1007.17
2017-07-24T00:38:30.341Z,1007.15
2017-07-24T00:39:40.319Z,1007.15
2017-07-24T00:40:50.292Z,1007.12
2017-07-24T00:42:00.593Z,1007.09
2017-07-24T00:43:11.113Z,1007.11
2017-07-24T00:44:21.077Z,1007.09
2017-07-24T00:45:31.059Z,1007.06
2017-07-24T00:46:41.037Z,1007.06
2017-07-24T00:47:51.305Z,1007.07
2017-07-24T00:49:01.531Z,1007.06
2017-07-24T00:50:11.525Z,1007.08
2017-07-24T00:51:21.492Z,1007.08
2017-07-24T00:52:31.776Z,1007.07
2017-07-24T00:53:41.744Z,1007.08
2017-07-24T00:54:51.959Z,1007.03
2017-07-24T00:56:02.248Z,1007.02
2017-07-24T00:57:12.528Z,1007.07
2017-07-24T00:58:22.797Z,1007.07
2017-07-24T00:59:33.073Z,1007.03
2017-07-24T01:00:43.606Z,1007.05
2017-07-24T01:01:53.266Z,1007.05
2017-07-24T01:03:03.225Z,1007.03
2017-07-24T01:04:13.209Z,1007.03
2017-07-24T01:05:23.169Z,1007.04
2017-07-24T01:06:33.454Z,1006.97
2017-07-24T01:07:43.736Z,1007
2017-07-24T01:08:54.014Z,1007
2017-07-24T01:10:04.290Z,1006.98
2017-07-24T01:11:14.263Z,1006.99
2017-07-24T01:12:24.795Z,1006.98
2017-07-24T01:13:34.754Z,1006.99
2017-07-24T01:14:45.024Z,1006.97
2017-07-24T01:15:55.297Z,1006.96
2017-07-24T01:17:05.574Z,1006.98
2017-07-24T01:18:16.099Z,1006.97
2017-07-24T01:19:26.370Z,1006.97
2017-07-24T01:20:36.645Z,1006.98
2017-07-24T01:21:46.932Z,1006.98
2017-07-24T01:22:57.221Z,1006.97
2017-07-24T01:24:07.745Z,1006.97
2017-07-24T01:25:17.739Z,1006.95
2017-07-24T01:26:27.691Z,1007.01
2017-07-24T01:27:37.959Z,1006.98
2017-07-24T01:28:47.936Z,1006.98
2017-07-24T01:29:58.509Z,1006.97
2017-07-24T01:31:08.788Z,1006.98
2017-07-24T01:32:19.087Z,1006.89
2017-07-24T01:33:29.053Z,1006.89
2017-07-24T01:34:39.334Z,1006.84
2017-07-24T01:35:49.877Z,1006.81
2017-07-24T01:36:59.845Z,1006.84
2017-07-24T01:38:10.116Z,1006.8
2017-07-24T01:39:20.088Z,1006.86
2017-07-24T01:40:30.364Z,1006.88
2017-07-24T01:41:40.902Z,1006.92
2017-07-24T01:42:50.863Z,1006.91
2017-07-24T01:44:00.858Z,1006.84
2017-07-24T01:45:11.133Z,1006.86
2017-07-24T01:46:21.104Z,1006.87
2017-07-24T01:47:31.318Z,1006.85
2017-07-24T01:48:41.612Z,1006.85
2017-07-24T01:49:51.886Z,1006.88
2017-07-24T01:51:02.153Z,1006.82
2017-07-24T01:52:12.436Z,1006.82
2017-07-24T01:53:23.026Z,1006.82
2017-07-24T01:54:32.986Z,1006.8
2017-07-24T01:55:43.257Z,1006.78
2017-07-24T01:56:53.530Z,1006.77
2017-07-24T01:58:03.799Z,1006.78
2017-07-24T01:59:14.003Z,1006.75
2017-07-24T02:00:24.286Z,1006.73
2017-07-24T02:01:34.242Z,1006.73
2017-07-24T02:02:44.517Z,1006.74
2017-07-24T02:03:54.790Z,1006.71
2017-07-24T02:05:04.684Z,1006.66
2017-07-24T02:06:14.959Z,1006.63
2017-07-24T02:07:24.927Z,1006.64
2017-07-24T02:08:35.200Z,1006.61
2017-07-24T02:09:45.496Z,1006.57
2017-07-24T02:10:56.073Z,1006.57
2017-07-24T02:12:06.033Z,1006.53
2017-07-24T02:13:16.318Z,1006.52
2017-07-24T02:14:26.597Z,1006.51
2017-07-24T02:15:36.565Z,1006.53
2017-07-24T02:16:47.086Z,1006.53
2017-07-24T02:17:57.056Z,1006.56
2017-07-24T02:19:07.342Z,1006.55
2017-07-24T02:20:17.618Z,1006.53
2017-07-24T02:21:27.895Z,1006.46
2017-07-24T02:22:38.119Z,1006.46
2017-07-24T02:23:48.392Z,1006.44
2017-07-24T02:24:58.676Z,1006.44
2017-07-24T02:26:08.954Z,1006.38
2017-07-24T02:27:18.941Z,1006.4
2017-07-24T02:28:29.463Z,1006.39
2017-07-24T02:29:39.734Z,1006.32
2017-07-24T02:30:49.714Z,1006.31
2017-07-24T02:32:00.003Z,1006.3
2017-07-24T02:33:09.999Z,1006.3
2017-07-24T02:34:20.522Z,1006.26
2017-07-24T02:35:30.816Z,1006.23
2017-07-24T02:36:40.770Z,1006.23
2017-07-24T02:37:50.738Z,1006.23
2017-07-24T02:39:01.011Z,1006.22
2017-07-24T02:40:11.548Z,1006.2
2017-07-24T02:41:21.523Z,1006.18
2017-07-24T02:42:31.815Z,1006.21
2017-07-24T02:43:42.091Z,1006.23
2017-07-24T02:44:52.369Z,1006.19
2017-07-24T02:46:02.269Z,1006.19
2017-07-24T02:47:12.547Z,1006.18
2017-07-24T02:48:22.497Z,1006.19
2017-07-24T02:49:32.477Z,1006.14
2017-07-24T02:50:43.085Z,1006.16
2017-07-24T02:51:53.308Z,1006.16
2017-07-24T02:53:03.591Z,1006.18
2017-07-24T02:54:13.861Z,1006.15
2017-07-24T02:55:24.136Z,1006.12
2017-07-24T02:56:34.108Z,1006.15
2017-07-24T02:57:44.019Z,1006.13
2017-07-24T02:58:53.967Z,1006.13
2017-07-24T03:00:04.258Z,1006.15
2017-07-24T03:01:14.546Z,1006.11
2017-07-24T03:02:24.827Z,1006.13
2017-07-24T03:03:35.356Z,1006.12
2017-07-24T03:04:45.635Z,1006.08
2017-07-24T03:05:55.925Z,1006.06
2017-07-24T03:07:05.894Z,1006.02
2017-07-24T03:08:16.173Z,1005.99
2017-07-24T03:09:26.711Z,1005.98
2017-07-24T03:10:36.977Z,1005.98
2017-07-24T03:11:47.251Z,1005.98
2017-07-24T03:12:57.534Z,1005.94
2017-07-24T03:14:07.197Z,1005.91
2017-07-24T03:15:17.718Z,1005.89
2017-07-24T03:16:27.994Z,1005.88
2017-07-24T03:17:38.282Z,1005.87
2017-07-24T03:18:48.571Z,1005.85
2017-07-24T03:19:58.531Z,1005.81
2017-07-24T03:21:09.061Z,1005.85
2017-07-24T03:22:18.727Z,1005.81
2017-07-24T03:23:29.009Z,1005.84
2017-07-24T03:24:39.297Z,1005.86
2017-07-24T03:25:48.957Z,1005.88
2017-07-24T03:26:59.486Z,1005.89
2017-07-24T03:28:09.775Z,1005.86
2017-07-24T03:29:19.731Z,1005.87
2017-07-24T03:30:30.021Z,1005.86
2017-07-24T03:31:40.311Z,1005.85
2017-07-24T03:32:50.534Z,1005.81
2017-07-24T03:34:00.817Z,1005.83
2017-07-24T03:35:10.781Z,1005.85
2017-07-24T03:36:20.748Z,1005.86
2017-07-24T03:37:31.037Z,1005.84
2017-07-24T03:38:41.563Z,1005.89
2017-07-24T03:39:51.840Z,1005.86
2017-07-24T03:41:01.818Z,1005.84
2017-07-24T03:42:11.784Z,1005.85
2017-07-24T03:43:22.703Z,1005.83
2017-07-24T03:44:33.254Z,1005.8
2017-07-24T03:45:43.539Z,1005.79
2017-07-24T03:46:54.215Z,1005.8
2017-07-24T03:48:04.493Z,1005.75
2017-07-24T03:49:14.777Z,1005.78
2017-07-24T03:50:25.299Z,1005.82
2017-07-24T03:51:35.275Z,1005.83
2017-07-24T03:52:45.557Z,1005.78
2017-07-24T03:53:55.214Z,1005.8
2017-07-24T03:55:04.864Z,1005.82
2017-07-24T03:56:15.379Z,1005.79
2017-07-24T03:57:25.344Z,1005.82
2017-07-24T03:58:35.603Z,1005.79
2017-07-24T03:59:45.573Z,1005.79
2017-07-24T04:00:55.549Z,1005.77
2017-07-24T04:02:06.080Z,1005.73
2017-07-24T04:03:16.355Z,1005.76
2017-07-24T04:04:26.337Z,1005.71
2017-07-24T04:05:36.614Z,1005.73
2017-07-24T04:06:45.976Z,1005.71
2017-07-24T04:07:56.201Z,1005.67
2017-07-24T04:09:06.504Z,1005.67
2017-07-24T04:10:16.478Z,1005.67
2017-07-24T04:11:26.483Z,1005.65
2017-07-24T04:12:36.446Z,1005.7
2017-07-24T04:13:46.954Z,1005.67
2017-07-24T04:14:57.281Z,1005.7
2017-07-24T04:16:07.575Z,1005.71
2017-07-24T04:17:17.849Z,1005.68
2017-07-24T04:18:28.130Z,1005.71
2017-07-24T04:19:38.025Z,1005.68
2017-07-24T04:20:47.984Z,1005.73
2017-07-24T04:21:58.262Z,1005.72
2017-07-24T04:23:07.920Z,1005.76
2017-07-24T04:24:18.207Z,1005.69
2017-07-24T04:25:28.445Z,1005.7
2017-07-24T04:26:38.725Z,1005.69
2017-07-24T04:27:48.981Z,1005.69
2017-07-24T04:28:58.945Z,1005.63
2017-07-24T04:30:08.920Z,1005.64
2017-07-24T04:31:19.439Z,1005.6
2017-07-24T04:32:29.407Z,1005.6
2017-07-24T04:33:39.691Z,1005.54
2017-07-24T04:34:49.673Z,1005.57
2017-07-24T04:35:59.975Z,1005.58
2017-07-24T04:37:10.508Z,1005.55
2017-07-24T04:38:20.803Z,1005.54
2017-07-24T04:39:31.085Z,1005.52
2017-07-24T04:40:41.370Z,1005.51
2017-07-24T04:41:51.327Z,1005.49
2017-07-24T04:43:01.867Z,1005.5
2017-07-24T04:44:12.162Z,1005.46
2017-07-24T04:45:22.439Z,1005.45
2017-07-24T04:46:32.713Z,1005.4
2017-07-24T04:47:42.990Z,1005.44
2017-07-24T04:48:52.887Z,1005.44
2017-07-24T04:50:02.860Z,1005.44
2017-07-24T04:51:12.828Z,1005.46
2017-07-24T04:52:22.795Z,1005.41
2017-07-24T04:53:32.469Z,1005.41
2017-07-24T04:54:42.993Z,1005.4
2017-07-24T04:55:53.267Z,1005.4
2017-07-24T04:57:03.537Z,1005.36
2017-07-24T04:58:13.820Z,1005.34
2017-07-24T04:59:24.093Z,1005.33
2017-07-24T05:00:34.310Z,1005.29
2017-07-24T05:01:44.601Z,1005.26
2017-07-24T05:02:54.911Z,1005.23
2017-07-24T05:04:05.195Z,1005.21
2017-07-24T05:05:15.487Z,1005.19
2017-07-24T05:06:26.029Z,1005.17
2017-07-24T05:07:36.306Z,1005.15
2017-07-24T05:08:46.506Z,1005.13
2017-07-24T05:09:56.457Z,1005.11
2017-07-24T05:11:06.747Z,1005.12
2017-07-24T05:12:17.290Z,1005.12
2017-07-24T05:13:27.261Z,1005.03
2017-07-24T05:14:37.540Z,1005.08
2017-07-24T05:15:47.829Z,1005.04
2017-07-24T05:16:57.821Z,1005.07
2017-07-24T05:18:08.350Z,1005.05
2017-07-24T05:19:18.613Z,1005.09
2017-07-24T05:20:28.579Z,1005.12
2017-07-24T05:21:38.857Z,1005.13
2017-07-24T05:22:49.132Z,1005.14
2017-07-24T05:23:59.670Z,1005.16
2017-07-24T05:25:09.970Z,1005.12
2017-07-24T05:26:20.241Z,1005.17
2017-07-24T05:27:30.508Z,1005.15
2017-07-24T05:28:40.797Z,1005.18
2017-07-24T05:29:51.327Z,1005.18
2017-07-24T05:31:01.292Z,1005.16
2017-07-24T05:32:11.560Z,1005.17
2017-07-24T05:33:21.532Z,1005.14
2017-07-24T05:34:31.806Z,1005.11
2017-07-24T05:35:42.077Z,1005.09
2017-07-24T05:36:52.364Z,1005.1
2017-07-24T05:38:02.907Z,1005.11
2017-07-24T05:39:13.180Z,1005.07
2017-07-24T05:40:23.469Z,1005.08
2017-07-24T05:41:33.366Z,1005.08
2017-07-24T05:42:43.674Z,1005.03
2017-07-24T05:43:53.648Z,1005.02
2017-07-24T05:45:03.630Z,1005.04
2017-07-24T05:46:13.897Z,1004.98
2017-07-24T05:47:24.438Z,1004.98
2017-07-24T05:48:34.716Z,1004.99
2017-07-24T05:49:44.703Z,1004.98
2017-07-24T05:50:54.361Z,1004.97
2017-07-24T05:52:04.026Z,1004.98
2017-07-24T05:53:14.633Z,1004.98
2017-07-24T05:54:24.908Z,1004.97
2017-07-24T05:55:35.194Z,1004.97
2017-07-24T05:56:44.858Z,1004.96
2017-07-24T05:57:55.140Z,1004.94
2017-07-24T05:59:05.662Z,1004.97
2017-07-24T06:00:15.633Z,1004.94
2017-07-24T06:01:25.914Z,1004.94
2017-07-24T06:02:36.201Z,1004.91
2017-07-24T06:03:46.482Z,1004.87
2017-07-24T06:04:57.005Z,1004.91
2017-07-24T06:06:06.661Z,1004.86
2017-07-24T06:07:16.934Z,1004.91
2017-07-24T06:08:27.230Z,1004.9
2017-07-24T06:09:37.510Z,1004.9
2017-07-24T06:10:47.736Z,1004.9
2017-07-24T06:11:58.019Z,1004.89
2017-07-24T06:13:08.321Z,1004.86
2017-07-24T06:14:18.293Z,1004.85
2017-07-24T06:15:28.576Z,1004.85
2017-07-24T06:16:38.497Z,1004.87
2017-07-24T06:17:48.798Z,1004.85
2017-07-24T06:18:59.080Z,1004.87
2017-07-24T06:20:09.361Z,1004.84
2017-07-24T06:21:19.021Z,1004.79
2017-07-24T06:22:29.252Z,1004.84
2017-07-24T06:23:39.543Z,1004.85
2017-07-24T06:24:49.826Z,1004.82
2017-07-24T06:25:59.826Z,1004.82
2017-07-24T06:27:09.187Z,1004.81
2017-07-24T06:28:19.718Z,1004.79
2017-07-24T06:29:29.999Z,1004.76
2017-07-24T06:30:40.006Z,1004.8
2017-07-24T06:31:50.286Z,1004.79
2017-07-24T06:33:00.571Z,1004.76
2017-07-24T06:34:10.799Z,1004.76
2017-07-24T06:35:21.094Z,1004.77
2017-07-24T06:36:31.073Z,1004.77
2017-07-24T06:37:41.373Z,1004.68
2017-07-24T06:38:51.642Z,1004.76
2017-07-24T06:40:02.326Z,1004.77
2017-07-24T06:41:12.309Z,1004.73
2017-07-24T06:42:22.586Z,1004.76
2017-07-24T06:43:32.859Z,1004.75
2017-07-24T06:44:42.835Z,1004.79
2017-07-24T06:45:52.749Z,1004.79
2017-07-24T06:47:03.029Z,1004.77
2017-07-24T06:48:13.005Z,1004.77
2017-07-24T06:49:22.672Z,1004.79
2017-07-24T06:50:32.648Z,1004.78
2017-07-24T06:51:43.202Z,1004.81
2017-07-24T06:52:53.494Z,1004.79
2017-07-24T06:54:03.464Z,1004.8
2017-07-24T06:55:13.761Z,1004.79
2017-07-24T06:56:24.063Z,1004.85
2017-07-24T06:57:34.610Z,1004.8
2017-07-24T06:58:44.934Z,1004.81
2017-07-24T06:59:54.907Z,1004.8
2017-07-24T07:01:04.879Z,1004.79
2017-07-24T07:02:15.159Z,1004.74
2017-07-24T07:03:25.685Z,1004.77
2017-07-24T07:04:35.963Z,1004.74
2017-07-24T07:05:46.259Z,1004.76
2017-07-24T07:06:56.540Z,1004.72
2017-07-24T07:08:06.839Z,1004.7
2017-07-24T07:09:16.466Z,1004.69
2017-07-24T07:10:26.760Z,1004.7
2017-07-24T07:11:37.042Z,1004.68
2017-07-24T07:12:47.318Z,1004.69
2017-07-24T07:13:57.290Z,1004.7
2017-07-24T07:15:07.829Z,1004.69
2017-07-24T07:16:17.805Z,1004.7
2017-07-24T07:17:28.097Z,1004.72
2017-07-24T07:18:38.366Z,1004.68
2017-07-24T07:19:48.347Z,1004.65
2017-07-24T07:20:58.581Z,1004.66
2017-07-24T07:22:08.882Z,1004.69
2017-07-24T07:23:19.209Z,1004.68
2017-07-24T07:24:29.493Z,1004.7
2017-07-24T07:25:39.148Z,1004.69
2017-07-24T07:26:49.370Z,1004.7
2017-07-24T07:27:59.021Z,1004.7
2017-07-24T07:29:09.009Z,1004.67
2017-07-24T07:30:18.979Z,1004.69
2017-07-24T07:31:29.255Z,1004.7
2017-07-24T07:32:39.795Z,1004.71
2017-07-24T07:33:50.091Z,1004.65
2017-07-24T07:34:59.767Z,1004.69
2017-07-24T07:36:10.084Z,1004.64
2017-07-24T07:37:20.381Z,1004.63
2017-07-24T07:38:30.917Z,1004.67
2017-07-24T07:39:41.214Z,1004.57
2017-07-24T07:40:50.875Z,1004.6
2017-07-24T07:42:00.874Z,1004.56
2017-07-24T07:43:10.828Z,1004.59
2017-07-24T07:44:21.360Z,1004.55
2017-07-24T07:45:31.646Z,1004.55
2017-07-24T07:46:41.933Z,1004.51
2017-07-24T07:47:51.907Z,1004.55
2017-07-24T07:49:02.197Z,1004.53
2017-07-24T07:50:12.721Z,1004.56
2017-07-24T07:51:22.390Z,1004.57
2017-07-24T07:52:32.698Z,1004.51
2017-07-24T07:53:42.667Z,1004.51
2017-07-24T07:54:52.960Z,1004.55
2017-07-24T07:56:03.503Z,1004.54
2017-07-24T07:57:13.774Z,1004.55
2017-07-24T07:58:24.070Z,1004.53
2017-07-24T07:59:34.050Z,1004.55
2017-07-24T08:00:44.011Z,1004.55
2017-07-24T08:01:54.548Z,1004.52
2017-07-24T08:03:04.522Z,1004.52
2017-07-24T08:04:14.814Z,1004.56
2017-07-24T08:05:25.118Z,1004.57
2017-07-24T08:06:35.095Z,1004.6
2017-07-24T08:07:45.646Z,1004.59
2017-07-24T08:08:55.631Z,1004.54
2017-07-24T08:10:05.603Z,1004.59
2017-07-24T08:11:15.584Z,1004.56
2017-07-24T08:12:25.875Z,1004.51
2017-07-24T08:13:36.430Z,1004.55
2017-07-24T08:14:46.716Z,1004.54
2017-07-24T08:15:57.021Z,1004.57
2017-07-24T08:17:07.306Z,1004.52
2017-07-24T08:18:17.629Z,1004.53
2017-07-24T08:19:28.170Z,1004.5
2017-07-24T08:20:38.491Z,1004.55
2017-07-24T08:21:48.458Z,1004.49
2017-07-24T08:22:58.750Z,1004.5
2017-07-24T08:24:08.739Z,1004.44
2017-07-24T08:25:19.276Z,1004.5
2017-07-24T08:26:29.598Z,1004.45
2017-07-24T08:27:39.898Z,1004.5
2017-07-24T08:28:49.891Z,1004.49
2017-07-24T08:30:00.218Z,1004.48
2017-07-24T08:31:10.129Z,1004.51
2017-07-24T08:32:20.418Z,1004.52
2017-07-24T08:33:30.697Z,1004.55
2017-07-24T08:34:40.693Z,1004.53
2017-07-24T08:35:50.661Z,1004.53
2017-07-24T08:37:01.213Z,1004.53
2017-07-24T08:38:11.507Z,1004.51
2017-07-24T08:39:21.482Z,1004.48
2017-07-24T08:40:31.463Z,1004.54
2017-07-24T08:41:41.761Z,1004.5
2017-07-24T08:42:52.315Z,1004.49
2017-07-24T08:44:02.595Z,1004.52
2017-07-24T08:45:12.877Z,1004.48
2017-07-24T08:46:23.187Z,1004.48
2017-07-24T08:47:34.039Z,1004.5
2017-07-24T08:48:44.254Z,1004.52
2017-07-24T08:49:54.241Z,1004.46
2017-07-24T08:51:04.529Z,1004.4
2017-07-24T08:52:14.799Z,1004.44
2017-07-24T08:53:25.087Z,1004.44
2017-07-24T08:54:35.643Z,1004.47
2017-07-24T08:55:45.638Z,1004.46
2017-07-24T08:56:55.629Z,1004.44
2017-07-24T08:58:05.919Z,1004.48
2017-07-24T08:59:16.213Z,1004.48
2017-07-24T09:00:26.800Z,1004.47
2017-07-24T09:01:37.101Z,1004.43
2017-07-24T09:02:47.422Z,1004.44
2017-07-24T09:03:57.494Z,1004.44
2017-07-24T09:05:07.788Z,1004.37
2017-07-24T09:06:18.028Z,1004.38
2017-07-24T09:07:28.314Z,1004.41
2017-07-24T09:08:37.990Z,1004.36
2017-07-24T09:09:48.297Z,1004.4
2017-07-24T09:10:58.597Z,1004.34
2017-07-24T09:12:09.149Z,1004.31
2017-07-24T09:13:19.471Z,1004.32
2017-07-24T09:14:29.470Z,1004.31
2017-07-24T09:15:39.457Z,1004.34
2017-07-24T09:16:49.775Z,1004.36
2017-07-24T09:18:00.328Z,1004.33
2017-07-24T09:19:10.634Z,1004.29
2017-07-24T09:20:20.916Z,1004.31
2017-07-24T09:21:30.903Z,1004.28
2017-07-24T09:22:40.889Z,1004.27
2017-07-24T09:23:51.170Z,1004.28
2017-07-24T09:25:01.477Z,1004.24
2017-07-24T09:26:11.774Z,1004.23
2017-07-24T09:27:22.065Z,1004.29
2017-07-24T09:28:32.078Z,1004.3
2017-07-24T09:29:42.644Z,1004.27
2017-07-24T09:30:52.640Z,1004.27
2017-07-24T09:32:02.972Z,1004.25
2017-07-24T09:33:13.294Z,1004.3
2017-07-24T09:34:23.289Z,1004.24
2017-07-24T09:35:33.841Z,1004.18
2017-07-24T09:36:44.122Z,1004.16
2017-07-24T09:37:54.441Z,1004.13
2017-07-24T09:39:04.758Z,1004.12
2017-07-24T09:40:15.054Z,1004.18
2017-07-24T09:41:25.643Z,1004.15
2017-07-24T09:42:35.644Z,1004.13
2017-07-24T09:43:45.972Z,1004.14
2017-07-24T09:44:55.972Z,1004.19
2017-07-24T09:46:05.680Z,1004.15
2017-07-24T09:47:16.276Z,1004.14
2017-07-24T09:48:26.568Z,1004.13
2017-07-24T09:49:36.874Z,1004.11
2017-07-24T09:50:46.860Z,1004.12
2017-07-24T09:51:57.145Z,1004.14
2017-07-24T09:53:07.374Z,1004.12
2017-07-24T09:54:17.359Z,1004.14
2017-07-24T09:55:27.344Z,1004.13
2017-07-24T09:56:37.319Z,1004.11
2017-07-24T09:57:47.620Z,1004.1
2017-07-24T09:58:57.863Z,1004.06
2017-07-24T10:00:08.177Z,1004.08
2017-07-24T10:01:18.462Z,1004.04
2017-07-24T10:02:28.450Z,1004.07
2017-07-24T10:03:38.129Z,1004.12
2017-07-24T10:04:48.662Z,1004.11
2017-07-24T10:05:58.942Z,1004.13
2017-07-24T10:07:09.258Z,1004.09
2017-07-24T10:08:19.592Z,1004.08
2017-07-24T10:09:29.578Z,1004.08
2017-07-24T10:10:39.821Z,1004.06
2017-07-24T10:11:50.336Z,1004.04
2017-07-24T10:13:00.636Z,1004.04
2017-07-24T10:14:10.619Z,1004
2017-07-24T10:15:20.620Z,1004.02
2017-07-24T10:16:30.846Z,1004.04
2017-07-24T10:17:41.132Z,1004
2017-07-24T10:18:51.431Z,1003.96
2017-07-24T10:20:01.722Z,1003.98
2017-07-24T10:21:12.018Z,1003.95
2017-07-24T10:22:22.240Z,1003.91
2017-07-24T10:23:31.930Z,1003.85
2017-07-24T10:24:42.221Z,1003.86
2017-07-24T10:25:52.497Z,1003.8
2017-07-24T10:27:02.825Z,1003.8
2017-07-24T10:28:13.355Z,1003.78
2017-07-24T10:29:23.654Z,1003.73
2017-07-24T10:30:33.643Z,1003.79
2017-07-24T10:31:43.626Z,1003.75
2017-07-24T10:32:53.929Z,1003.77
2017-07-24T10:34:04.473Z,1003.72
2017-07-24T10:35:14.466Z,1003.7
2017-07-24T10:36:24.142Z,1003.65
2017-07-24T10:37:34.436Z,1003.62
2017-07-24T10:38:44.739Z,1003.57
2017-07-24T10:39:55.305Z,1003.58
2017-07-24T10:41:05.281Z,1003.56
2017-07-24T10:42:15.583Z,1003.55
2017-07-24T10:43:25.901Z,1003.58
2017-07-24T10:44:36.187Z,1003.57
2017-07-24T10:45:46.484Z,1003.54
2017-07-24T10:46:56.481Z,1003.56
2017-07-24T10:48:06.454Z,1003.53
2017-07-24T10:49:16.746Z,1003.57
2017-07-24T10:50:27.061Z,1003.52
2017-07-24T10:51:37.646Z,1003.5
2017-07-24T10:52:47.329Z,1003.48
2017-07-24T10:53:57.611Z,1003.46
2017-07-24T10:55:07.591Z,1003.41
2017-07-24T10:56:17.878Z,1003.47
2017-07-24T10:57:28.414Z,1003.46
2017-07-24T10:58:38.707Z,1003.37
2017-07-24T10:59:48.981Z,1003.35
2017-07-24T11:00:58.975Z,1003.35
2017-07-24T11:02:09.228Z,1003.35
2017-07-24T11:03:19.144Z,1003.34
2017-07-24T11:04:29.429Z,1003.37
2017-07-24T11:05:39.104Z,1003.38
2017-07-24T11:06:49.399Z,1003.36
2017-07-24T11:07:59.695Z,1003.38
2017-07-24T11:09:09.940Z,1003.34
2017-07-24T11:10:20.223Z,1003.33
2017-07-24T11:11:30.522Z,1003.33
2017-07-24T11:12:40.484Z,1003.35
2017-07-24T11:13:50.175Z,1003.31
2017-07-24T11:15:00.719Z,1003.32
2017-07-24T11:16:11.035Z,1003.33
2017-07-24T11:17:21.020Z,1003.29
2017-07-24T11:18:30.993Z,1003.25
2017-07-24T11:19:41.303Z,1003.26
2017-07-24T11:20:51.854Z,1003.22
2017-07-24T11:22:02.155Z,1003.22
2017-07-24T11:23:12.447Z,1003.15
2017-07-24T11:24:22.747Z,1003.13
2017-07-24T11:25:33.049Z,1003.11
2017-07-24T11:26:43.600Z,1003.05
2017-07-24T11:27:53.881Z,1003.14
2017-07-24T11:29:04.164Z,1003.11
2017-07-24T11:30:14.471Z,1003.06
2017-07-24T11:31:24.194Z,1003.06
2017-07-24T11:32:34.423Z,1003.09
2017-07-24T11:33:44.716Z,1003.05
2017-07-24T11:34:54.699Z,1003.02
2017-07-24T11:36:04.683Z,1002.99
2017-07-24T11:37:14.997Z,1003
2017-07-24T11:38:25.532Z,1002.93
2017-07-24T11:39:35.827Z,1002.97
2017-07-24T11:40:45.826Z,1002.91
2017-07-24T11:41:56.116Z,1002.88
2017-07-24T11:43:06.098Z,1002.9
2017-07-24T11:44:16.318Z,1002.87
2017-07-24T11:45:26.613Z,1002.86
2017-07-24T11:46:36.903Z,1002.85
2017-07-24T11:47:47.205Z,1002.83
2017-07-24T11:48:57.180Z,1002.79
2017-07-24T11:50:07.400Z,1002.78
2017-07-24T11:51:17.397Z,1002.76
2017-07-24T11:52:27.693Z,1002.75
2017-07-24T11:53:38.001Z,1002.73
2017-07-24T11:54:48.279Z,1002.72
2017-07-24T11:55:58.817Z,1002.68
2017-07-24T11:57:09.114Z,1002.66
2017-07-24T11:58:19.435Z,1002.68
2017-07-24T11:59:29.742Z,1002.69
2017-07-24T12:00:40.040Z,1002.67
2017-07-24T12:01:50.290Z,1002.69
2017-07-24T12:03:00.276Z,1002.68
2017-07-24T12:04:10.258Z,1002.71
2017-07-24T12:05:20.544Z,1002.7
2017-07-24T12:06:30.832Z,1002.65
2017-07-24T12:07:41.371Z,1002.7
2017-07-24T12:08:51.650Z,1002.69
2017-07-24T12:10:01.927Z,1002.73
2017-07-24T12:11:11.908Z,1002.73
2017-07-24T12:12:22.212Z,1002.74
2017-07-24T12:13:32.436Z,1002.73
2017-07-24T12:14:42.718Z,1002.72
2017-07-24T12:15:53.023Z,1002.7
2017-07-24T12:17:03.013Z,1002.67
2017-07-24T12:18:12.992Z,1002.68
2017-07-24T12:19:23.581Z,1002.58
2017-07-24T12:20:33.556Z,1002.53
2017-07-24T12:21:43.535Z,1002.53
2017-07-24T12:22:53.845Z,1002.52
2017-07-24T12:24:04.146Z,1002.53
2017-07-24T12:25:14.700Z,1002.49
2017-07-24T12:26:24.696Z,1002.5
2017-07-24T12:27:34.694Z,1002.47
2017-07-24T12:28:45.000Z,1002.47
2017-07-24T12:29:54.987Z,1002.43
2017-07-24T12:31:05.546Z,1002.45
2017-07-24T12:32:15.234Z,1002.44
2017-07-24T12:33:24.913Z,1002.4
2017-07-24T12:34:35.197Z,1002.44
2017-07-24T12:35:45.498Z,1002.46
2017-07-24T12:36:56.046Z,1002.43
2017-07-24T12:38:06.344Z,1002.44
2017-07-24T12:39:16.333Z,1002.41
2017-07-24T12:40:26.306Z,1002.4
2017-07-24T12:41:36.628Z,1002.43
2017-07-24T12:42:46.844Z,1002.44
2017-07-24T12:43:56.830Z,1002.46
2017-07-24T12:45:07.133Z,1002.44
2017-07-24T12:46:17.119Z,1002.47
2017-07-24T12:47:27.417Z,1002.43
2017-07-24T12:48:37.956Z,1002.49
2017-07-24T12:49:48.235Z,1002.53
2017-07-24T12:50:58.534Z,1002.49
2017-07-24T12:52:08.225Z,1002.45
2017-07-24T12:53:17.905Z,1002.47
2017-07-24T12:54:28.452Z,1002.53
2017-07-24T12:55:38.755Z,1002.46
2017-07-24T12:56:49.056Z,1002.45
2017-07-24T12:57:59.045Z,1002.47
2017-07-24T12:59:09.335Z,1002.5
2017-07-24T13:00:19.253Z,1002.52
2017-07-24T13:01:29.220Z,1002.49
2017-07-24T13:02:39.504Z,1002.51
2017-07-24T13:03:49.818Z,1002.42
2017-07-24T13:04:59.806Z,1002.41
2017-07-24T13:06:10.355Z,1002.44
2017-07-24T13:07:20.675Z,1002.43
2017-07-24T13:08:30.673Z,1002.47
2017-07-24T13:09:40.649Z,1002.47
2017-07-24T13:10:50.934Z,1002.45
2017-07-24T13:12:01.491Z,1002.48
2017-07-24T13:13:11.793Z,1002.45
2017-07-24T13:14:22.096Z,1002.44
2017-07-24T13:15:32.409Z,1002.42
2017-07-24T13:16:42.695Z,1002.47
2017-07-24T13:17:52.929Z,1002.48
2017-07-24T13:19:03.224Z,1002.44
2017-07-24T13:20:13.525Z,1002.42
2017-07-24T13:21:23.817Z,1002.41
2017-07-24T13:22:34.108Z,1002.44
2017-07-24T13:23:44.645Z,1002.41
2017-07-24T13:24:54.953Z,1002.4
2017-07-24T13:26:04.966Z,1002.4
2017-07-24T13:27:15.248Z,1002.46
2017-07-24T13:28:25.232Z,1002.41
2017-07-24T13:29:35.762Z,1002.4
2017-07-24T13:30:45.751Z,1002.37
2017-07-24T13:31:56.037Z,1002.36
2017-07-24T13:33:06.321Z,1002.34
2017-07-24T13:34:16.637Z,1002.35
2017-07-24T13:35:26.560Z,1002.33
2017-07-24T13:36:36.540Z,1002.32
2017-07-24T13:37:46.825Z,1002.32
2017-07-24T13:38:57.128Z,1002.34
2017-07-24T13:40:07.185Z,1002.31
2017-07-24T13:41:17.424Z,1002.27
2017-07-24T13:42:27.716Z,1002.26
2017-07-24T13:43:37.697Z,1002.23
2017-07-24T13:44:47.991Z,1002.23
2017-07-24T13:45:58.284Z,1002.23
2017-07-24T13:47:08.840Z,1002.15
2017-07-24T13:48:19.127Z,1002.23
2017-07-24T13:49:29.429Z,1002.22
2017-07-24T13:50:39.766Z,1002.25
2017-07-24T13:51:49.745Z,1002.18
2017-07-24T13:52:59.984Z,1002.26
2017-07-24T13:54:09.959Z,1002.23
2017-07-24T13:55:20.243Z,1002.17
2017-07-24T13:56:30.550Z,1002.17
2017-07-24T13:57:40.553Z,1002.16
2017-07-24T13:58:51.085Z,1002.12
2017-07-24T14:00:01.067Z,1002.1
2017-07-24T14:01:11.041Z,1002.15
2017-07-24T14:02:21.351Z,1002.14
2017-07-24T14:03:31.631Z,1002.1
2017-07-24T14:04:42.161Z,1002.1
2017-07-24T14:05:52.452Z,1002.08
2017-07-24T14:07:02.751Z,1002.04
2017-07-24T14:08:12.730Z,1001.99
2017-07-24T14:09:22.382Z,1001.99
2017-07-24T14:10:32.618Z,1001.96
2017-07-24T14:11:42.901Z,1002
2017-07-24T14:12:53.195Z,1001.96